createdAt,value
2018-03-16T00:00:50.237Z,96144
2018-03-16T00:03:19.169Z,96140
2018-03-16T00:05:47.337Z,96137
2018-03-16T00:08:15.519Z,96138
2018-03-16T00:10:43.674Z,96134
2018-03-16T00:13:11.829Z,96129
2018-03-16T00:15:40.766Z,96132
2018-03-16T00:18:08.927Z,96126
2018-03-16T00:20:37.084Z,96128
2018-03-16T00:23:05.242Z,96121
2018-03-16T00:25:34.165Z,96122
2018-03-16T00:28:02.350Z,96129
2018-03-16T00:30:30.514Z,96122
2018-03-16T00:32:58.679Z,96118
2018-03-16T00:35:26.836Z,96119
2018-03-16T00:37:55.762Z,96122
2018-03-16T00:40:23.918Z,96122
2018-03-16T00:42:52.083Z,96118
2018-03-16T00:45:20.277Z,96119
2018-03-16T00:47:48.448Z,96114
2018-03-16T00:50:16.603Z,96114
2018-03-16T00:52:44.790Z,96111
2018-03-16T00:55:13.011Z,96118
2018-03-16T00:57:41.942Z,96109
2018-03-16T01:00:10.904Z,96110
2018-03-16T01:02:39.834Z,96109
2018-03-16T01:05:07.998Z,96101
2018-03-16T01:07:36.933Z,96099
2018-03-16T01:10:05.094Z,96096
2018-03-16T01:12:33.253Z,96098
2018-03-16T01:15:01.410Z,96095
2018-03-16T01:17:30.370Z,96093
2018-03-16T01:19:58.526Z,96091
2018-03-16T01:22:26.698Z,96095
2018-03-16T01:24:54.858Z,96092
2018-03-16T01:27:23.020Z,96087
2018-03-16T01:29:51.187Z,96080
2018-03-16T01:32:19.344Z,96070
2018-03-16T01:34:48.290Z,96069
2018-03-16T01:37:16.470Z,96068
2018-03-16T01:39:44.838Z,96067
2018-03-16T01:42:13.001Z,96064
2018-03-16T01:44:41.185Z,96064
2018-03-16T01:47:09.335Z,96058
2018-03-16T01:49:37.497Z,96055
2018-03-16T01:52:06.430Z,96054
2018-03-16T01:54:34.591Z,96054
2018-03-16T01:57:02.770Z,96047
2018-03-16T01:59:30.917Z,96043
2018-03-16T02:01:59.076Z,96045
2018-03-16T02:04:28.031Z,96046
2018-03-16T02:06:56.210Z,96049
2018-03-16T02:09:24.367Z,96049
2018-03-16T02:11:52.523Z,96054
2018-03-16T02:14:20.686Z,96045
2018-03-16T02:16:48.842Z,96048
2018-03-16T02:19:17.770Z,96049
2018-03-16T02:21:45.957Z,96045
2018-03-16T02:24:14.105Z,96046
2018-03-16T02:26:42.270Z,96042
2018-03-16T02:29:10.433Z,96047
2018-03-16T02:31:39.363Z,96045
2018-03-16T02:34:07.518Z,96042
2018-03-16T02:36:35.676Z,96042
2018-03-16T02:39:04.642Z,96037
2018-03-16T02:41:33.564Z,96039
2018-03-16T02:44:02.503Z,96039
2018-03-16T02:46:30.652Z,96032
2018-03-16T02:48:58.819Z,96036
2018-03-16T02:51:26.982Z,96037
2018-03-16T02:53:55.897Z,96035
2018-03-16T02:56:24.046Z,96029
2018-03-16T02:58:52.211Z,96026
2018-03-16T03:01:21.133Z,96027
2018-03-16T03:03:49.282Z,96023
2018-03-16T03:06:18.215Z,96037
2018-03-16T03:08:46.502Z,96034
2018-03-16T03:11:14.655Z,96034
2018-03-16T03:13:42.810Z,96034
2018-03-16T03:16:10.966Z,96032
2018-03-16T03:18:39.913Z,96033
2018-03-16T03:21:08.058Z,96028
2018-03-16T03:23:36.244Z,96024
2018-03-16T03:26:04.398Z,96022
2018-03-16T03:28:32.554Z,96022
2018-03-16T03:31:01.502Z,96015
2018-03-16T03:33:29.661Z,96018
2018-03-16T03:35:57.810Z,96021
2018-03-16T03:38:26.727Z,96024
2018-03-16T03:40:54.911Z,96030
2018-03-16T03:43:23.125Z,96026
2018-03-16T03:45:51.313Z,96031
2018-03-16T03:48:20.227Z,96036
2018-03-16T03:50:48.388Z,96034
2018-03-16T03:53:17.322Z,96035
2018-03-16T03:55:45.493Z,96032
2018-03-16T03:58:13.655Z,96030
2018-03-16T04:00:41.812Z,96019
2018-03-16T04:03:09.978Z,96021
2018-03-16T04:05:38.902Z,96019
2018-03-16T04:08:07.089Z,96024
2018-03-16T04:10:35.243Z,96031
2018-03-16T04:13:03.421Z,96036
2018-03-16T04:15:31.569Z,96034
2018-03-16T04:17:59.746Z,96042
2018-03-16T04:20:27.907Z,96036
2018-03-16T04:22:56.848Z,96042
2018-03-16T04:25:25.018Z,96045
2018-03-16T04:27:53.177Z,96047
2018-03-16T04:30:21.344Z,96042
2018-03-16T04:32:49.506Z,96048
2018-03-16T04:35:17.688Z,96050
2018-03-16T04:37:45.850Z,96052
2018-03-16T04:40:14.762Z,96053
2018-03-16T04:42:42.922Z,96054
2018-03-16T04:45:11.848Z,96054
2018-03-16T04:47:40.004Z,96057
2018-03-16T04:50:08.162Z,96048
2018-03-16T04:52:36.322Z,96056
2018-03-16T04:55:05.273Z,96056
2018-03-16T04:57:33.441Z,96060
2018-03-16T05:00:01.603Z,96058
2018-03-16T05:02:29.757Z,96057
2018-03-16T05:04:57.919Z,96056
2018-03-16T05:07:26.853Z,96053
2018-03-16T05:09:55.007Z,96051
2018-03-16T05:12:23.190Z,96047
2018-03-16T05:14:51.356Z,96047
2018-03-16T05:17:19.513Z,96050
2018-03-16T05:19:48.446Z,96043
2018-03-16T05:22:16.607Z,96044
2018-03-16T05:24:44.762Z,96036
2018-03-16T05:27:20.712Z,96040
2018-03-16T05:29:48.898Z,96035
2018-03-16T05:32:17.130Z,96032
2018-03-16T05:34:46.054Z,96032
2018-03-16T05:37:14.987Z,96037
2018-03-16T05:39:43.187Z,96035
2018-03-16T05:42:11.391Z,96035
2018-03-16T05:44:40.316Z,96033
2018-03-16T05:47:08.474Z,96033
2018-03-16T05:49:36.654Z,96026
2018-03-16T05:52:04.821Z,96027
2018-03-16T05:54:32.987Z,96019
2018-03-16T05:57:01.153Z,96021
2018-03-16T05:59:30.085Z,96020
2018-03-16T06:01:58.242Z,96018
2018-03-16T06:04:26.400Z,96014
2018-03-16T06:06:55.357Z,96010
2018-03-16T06:09:23.525Z,96013
2018-03-16T06:11:51.704Z,96012
2018-03-16T06:14:19.866Z,96008
2018-03-16T06:16:48.042Z,96003
2018-03-16T06:19:16.207Z,96005
2018-03-16T06:21:44.367Z,96009
2018-03-16T06:24:12.526Z,96015
2018-03-16T06:26:40.686Z,96020
2018-03-16T06:29:08.865Z,96015
2018-03-16T06:31:37.032Z,96023
2018-03-16T06:34:05.973Z,96024
2018-03-16T06:36:34.136Z,96023
2018-03-16T06:39:02.320Z,96026
2018-03-16T06:41:30.500Z,96027
2018-03-16T06:43:58.665Z,96028
2018-03-16T06:46:26.838Z,96033
2018-03-16T06:48:55.004Z,96032
2018-03-16T06:51:23.163Z,96028
2018-03-16T06:53:51.322Z,96030
2018-03-16T06:56:20.242Z,96038
2018-03-16T06:58:48.411Z,96039
2018-03-16T07:01:16.590Z,96034
2018-03-16T07:03:44.752Z,96040
2018-03-16T07:06:12.926Z,96037
2018-03-16T07:08:41.082Z,96035
2018-03-16T07:11:10.000Z,96041
2018-03-16T07:13:38.158Z,96040
2018-03-16T07:16:06.331Z,96043
2018-03-16T07:18:34.507Z,96040
2018-03-16T07:21:02.670Z,96044
2018-03-16T07:23:31.607Z,96039
2018-03-16T07:25:59.780Z,96041
2018-03-16T07:28:27.951Z,96046
2018-03-16T07:30:56.172Z,96047
2018-03-16T07:33:24.307Z,96050
2018-03-16T07:35:52.483Z,96039
2018-03-16T07:38:20.656Z,96033
2018-03-16T07:40:48.818Z,96035
2018-03-16T07:43:17.017Z,96035
2018-03-16T07:45:50.676Z,96038
2018-03-16T07:48:18.849Z,96041
2018-03-16T07:50:47.022Z,96042
2018-03-16T07:53:15.202Z,96036
2018-03-16T07:55:43.418Z,96035
2018-03-16T07:58:11.568Z,96031
2018-03-16T08:00:39.728Z,96032
2018-03-16T08:03:07.894Z,96033
2018-03-16T08:05:36.056Z,96036
2018-03-16T08:08:04.987Z,96033
2018-03-16T08:10:33.152Z,96031
2018-03-16T08:13:01.316Z,96024
2018-03-16T08:15:29.494Z,96014
2018-03-16T08:17:57.652Z,96019
2018-03-16T08:20:26.586Z,96024
2018-03-16T08:22:54.754Z,96012
2018-03-16T08:25:22.907Z,96016
2018-03-16T08:27:51.069Z,96013
2018-03-16T08:30:19.986Z,96014
2018-03-16T08:32:48.161Z,96016
2018-03-16T08:35:16.329Z,96017
2018-03-16T08:37:44.481Z,96017
2018-03-16T08:40:13.421Z,96017
2018-03-16T08:42:41.593Z,96013
2018-03-16T08:45:09.778Z,96011
2018-03-16T08:47:37.941Z,96013
2018-03-16T08:50:06.126Z,96013
2018-03-16T08:52:34.339Z,96011
2018-03-16T08:55:03.274Z,96007
2018-03-16T08:57:31.442Z,96007
2018-03-16T08:59:59.615Z,96010
2018-03-16T09:02:27.786Z,96006
2018-03-16T09:04:55.961Z,96008
2018-03-16T09:07:24.142Z,96010
2018-03-16T09:09:52.313Z,96014
2018-03-16T09:12:20.727Z,96011
2018-03-16T09:14:48.886Z,96012
2018-03-16T09:17:17.046Z,96015
2018-03-16T09:19:45.213Z,96022
2018-03-16T09:22:13.423Z,96025
2018-03-16T09:24:41.614Z,96022
2018-03-16T09:27:09.774Z,96025
2018-03-16T09:29:37.938Z,96018
2018-03-16T09:32:06.101Z,96012
2018-03-16T09:34:35.186Z,96012
2018-03-16T09:37:03.827Z,96016
2018-03-16T09:39:37.425Z,96022
2018-03-16T09:42:06.363Z,96020
2018-03-16T09:44:35.091Z,96025
2018-03-16T09:47:03.640Z,96026
2018-03-16T09:49:31.810Z,96020
2018-03-16T09:51:59.966Z,96019
2018-03-16T09:54:33.550Z,96017
2018-03-16T09:57:05.249Z,96016
2018-03-16T09:59:33.393Z,96015
2018-03-16T10:02:02.009Z,96013
2018-03-16T10:04:39.445Z,96015
2018-03-16T10:07:07.846Z,96017
2018-03-16T10:09:36.030Z,96020
2018-03-16T10:12:04.260Z,96016
2018-03-16T10:14:32.362Z,96019
2018-03-16T10:17:01.295Z,96026
2018-03-16T10:19:29.453Z,96027
2018-03-16T10:21:57.630Z,96025
2018-03-16T10:24:25.810Z,96027
2018-03-16T10:26:53.972Z,96025
2018-03-16T10:29:22.132Z,96029
2018-03-16T10:31:51.060Z,96026
2018-03-16T10:34:19.223Z,96033
2018-03-16T10:36:47.378Z,96039
2018-03-16T10:39:15.578Z,96035
2018-03-16T10:41:43.734Z,96022
2018-03-16T10:44:11.896Z,96020
2018-03-16T10:46:40.830Z,96020
2018-03-16T10:49:08.998Z,96021
2018-03-16T10:51:37.175Z,96016
2018-03-16T10:54:05.342Z,96016
2018-03-16T10:56:33.516Z,96016
2018-03-16T10:59:01.689Z,96015
2018-03-16T11:01:35.410Z,96012
2018-03-16T11:04:03.590Z,96001
2018-03-16T11:06:34.726Z,95991
2018-03-16T11:09:02.893Z,95996
2018-03-16T11:11:31.108Z,96002
2018-03-16T11:13:59.278Z,96004
2018-03-16T11:16:27.455Z,95994
2018-03-16T11:18:55.627Z,96005
2018-03-16T11:21:24.586Z,95997
2018-03-16T11:23:52.759Z,95995
2018-03-16T11:26:20.934Z,95992
2018-03-16T11:28:49.117Z,95991
2018-03-16T11:31:17.287Z,95987
2018-03-16T11:33:45.464Z,95994
2018-03-16T11:36:13.634Z,95993
2018-03-16T11:38:41.824Z,95992
2018-03-16T11:41:10.006Z,95993
2018-03-16T11:43:38.216Z,95990
2018-03-16T11:46:07.149Z,95986
2018-03-16T11:48:35.318Z,95987
2018-03-16T11:51:03.498Z,95974
2018-03-16T11:53:31.673Z,95974
2018-03-16T11:55:59.854Z,95967
2018-03-16T11:58:28.021Z,95957
2018-03-16T12:00:56.195Z,95961
2018-03-16T12:03:24.375Z,95955
2018-03-16T12:05:52.575Z,95951
2018-03-16T12:08:20.748Z,95944
2018-03-16T12:10:48.959Z,95947
2018-03-16T12:13:17.105Z,95941
2018-03-16T12:15:45.278Z,95935
2018-03-16T12:18:13.443Z,95933
2018-03-16T12:20:41.613Z,95929
2018-03-16T12:23:09.795Z,95925
2018-03-16T12:25:38.722Z,95928
2018-03-16T12:28:07.654Z,95925
2018-03-16T12:30:35.835Z,95924
2018-03-16T12:33:04.002Z,95922
2018-03-16T12:35:32.175Z,95923
2018-03-16T12:38:00.362Z,95921
2018-03-16T12:40:28.541Z,95930
2018-03-16T12:42:56.715Z,95928
2018-03-16T12:45:24.882Z,95928
2018-03-16T12:47:53.075Z,95921
2018-03-16T12:50:21.238Z,95917
2018-03-16T12:52:49.411Z,95917
2018-03-16T12:55:17.582Z,95921
2018-03-16T12:57:45.758Z,95925
2018-03-16T13:00:13.955Z,95925
2018-03-16T13:02:42.894Z,95915
2018-03-16T13:05:11.082Z,95919
2018-03-16T13:07:39.251Z,95918
2018-03-16T13:10:07.409Z,95922
2018-03-16T13:12:35.581Z,95919
2018-03-16T13:15:03.752Z,95913
2018-03-16T13:17:31.918Z,95913
2018-03-16T13:20:00.864Z,95913
2018-03-16T13:22:29.046Z,95908
2018-03-16T13:24:57.214Z,95914
2018-03-16T13:27:26.193Z,95917
2018-03-16T13:29:54.344Z,95904
2018-03-16T13:32:22.546Z,95911
2018-03-16T13:34:50.713Z,95905
2018-03-16T13:37:18.876Z,95910
2018-03-16T13:39:47.043Z,95914
2018-03-16T13:42:15.295Z,95915
2018-03-16T13:44:44.227Z,95911
2018-03-16T13:47:12.454Z,95914
2018-03-16T13:49:40.677Z,95922
2018-03-16T13:52:08.887Z,95922
2018-03-16T13:54:37.059Z,95929
2018-03-16T13:57:05.241Z,95925
2018-03-16T13:59:34.168Z,95931
2018-03-16T14:02:02.348Z,95928
2018-03-16T14:04:30.523Z,95935
2018-03-16T14:06:58.687Z,95929
2018-03-16T14:09:27.630Z,95931
2018-03-16T14:11:55.821Z,95931
2018-03-16T14:14:23.985Z,95933
2018-03-16T14:16:52.163Z,95934
2018-03-16T14:19:20.331Z,95939
2018-03-16T14:21:48.498Z,95934
2018-03-16T14:24:16.667Z,95935
2018-03-16T14:26:44.849Z,95934
2018-03-16T14:29:13.020Z,95938
2018-03-16T14:31:41.199Z,95944
2018-03-16T14:34:09.386Z,95945
2018-03-16T14:36:39.061Z,95949
2018-03-16T14:39:08.794Z,95941
2018-03-16T14:41:36.957Z,95936
2018-03-16T14:44:05.142Z,95929
2018-03-16T14:46:33.355Z,95932
2018-03-16T14:49:02.296Z,95935
2018-03-16T14:51:30.461Z,95938
2018-03-16T14:53:58.640Z,95937
2018-03-16T14:56:26.811Z,95941
2018-03-16T14:58:55.001Z,95943
2018-03-16T15:01:23.178Z,95943
2018-03-16T15:03:51.348Z,95937
2018-03-16T15:06:19.527Z,95931
2018-03-16T15:08:47.698Z,95933
2018-03-16T15:11:15.895Z,95935
2018-03-16T15:13:44.061Z,95939
2018-03-16T15:16:12.227Z,95934
2018-03-16T15:18:41.162Z,95934
2018-03-16T15:21:10.096Z,95931
2018-03-16T15:23:38.307Z,95926
2018-03-16T15:26:06.499Z,95931
2018-03-16T15:28:35.435Z,95939
2018-03-16T15:31:03.607Z,95941
2018-03-16T15:33:31.783Z,95944
2018-03-16T15:35:59.959Z,95947
2018-03-16T15:38:28.155Z,95944
2018-03-16T15:40:56.328Z,95944
2018-03-16T15:43:24.492Z,95941
2018-03-16T15:45:52.661Z,95939
2018-03-16T15:48:20.846Z,95941
2018-03-16T15:50:49.066Z,95943
2018-03-16T15:53:17.201Z,95945
2018-03-16T15:55:45.367Z,95941
2018-03-16T15:58:13.540Z,95942
2018-03-16T16:00:41.704Z,95935
2018-03-16T16:03:09.872Z,95932
2018-03-16T16:05:38.257Z,95935
2018-03-16T16:08:06.433Z,95938
2018-03-16T16:10:34.606Z,95933
2018-03-16T16:13:02.769Z,95936
2018-03-16T16:15:31.059Z,95935
2018-03-16T16:17:59.236Z,95935
2018-03-16T16:20:27.404Z,95947
2018-03-16T16:22:55.577Z,95952
2018-03-16T16:25:23.754Z,95948
2018-03-16T16:27:51.939Z,95955
2018-03-16T16:30:20.111Z,95964
2018-03-16T16:32:48.289Z,95969
2018-03-16T16:35:16.459Z,95969
2018-03-16T16:37:44.638Z,95981
2018-03-16T16:40:12.820Z,95985
2018-03-16T16:42:40.995Z,95987
2018-03-16T16:45:09.159Z,95996
2018-03-16T16:47:37.336Z,95998
2018-03-16T16:50:05.502Z,96001
2018-03-16T16:52:33.675Z,95998
2018-03-16T16:55:01.923Z,95998
2018-03-16T16:57:30.038Z,96003
2018-03-16T16:59:58.202Z,96010
2018-03-16T17:02:26.375Z,96015
2018-03-16T17:04:54.542Z,96021
2018-03-16T17:07:22.732Z,96031
2018-03-16T17:09:50.898Z,96033
2018-03-16T17:12:19.069Z,96030
2018-03-16T17:14:47.232Z,96031
2018-03-16T17:17:15.434Z,96034
2018-03-16T17:19:43.610Z,96038
2018-03-16T17:22:12.554Z,96036
2018-03-16T17:24:41.490Z,96043
2018-03-16T17:27:09.680Z,96043
2018-03-16T17:29:37.931Z,96045
2018-03-16T17:32:06.111Z,96055
2018-03-16T17:34:34.289Z,96053
2018-03-16T17:37:02.458Z,96057
2018-03-16T17:39:30.633Z,96054
2018-03-16T17:41:58.802Z,96058
2018-03-16T17:44:26.986Z,96061
2018-03-16T17:46:55.169Z,96062
2018-03-16T17:49:23.352Z,96071
2018-03-16T17:51:51.528Z,96077
2018-03-16T17:54:19.700Z,96085
2018-03-16T17:56:47.876Z,96088
2018-03-16T17:59:16.826Z,96096
2018-03-16T18:01:45.011Z,96101
2018-03-16T18:04:13.207Z,96102
2018-03-16T18:06:41.419Z,96108
2018-03-16T18:09:10.374Z,96108
2018-03-16T18:11:38.599Z,96104
2018-03-16T18:14:07.551Z,96098
2018-03-16T18:16:35.722Z,96100
2018-03-16T18:19:03.900Z,96095
2018-03-16T18:21:32.101Z,96097
2018-03-16T18:24:00.293Z,96107
2018-03-16T18:26:29.308Z,96103
2018-03-16T18:28:58.134Z,96108
2018-03-16T18:31:26.309Z,96105
2018-03-16T18:33:54.478Z,96114
2018-03-16T18:36:22.661Z,96116
2018-03-16T18:38:51.626Z,96119
2018-03-16T18:41:19.818Z,96114
2018-03-16T18:43:49.350Z,96115
2018-03-16T18:46:17.533Z,96111
2018-03-16T18:48:46.486Z,96111
2018-03-16T18:51:14.687Z,96115
2018-03-16T18:53:42.881Z,96115
2018-03-16T18:56:11.812Z,96118
2018-03-16T18:58:40.005Z,96123
2018-03-16T19:01:08.175Z,96127
2018-03-16T19:03:36.367Z,96134
2018-03-16T19:06:04.558Z,96139
2018-03-16T19:08:32.723Z,96137
2018-03-16T19:11:00.905Z,96138
2018-03-16T19:13:29.087Z,96145
2018-03-16T19:15:57.267Z,96139
2018-03-16T19:18:26.219Z,96142
2018-03-16T19:20:54.405Z,96146
2018-03-16T19:23:22.573Z,96147
2018-03-16T19:25:50.748Z,96142
2018-03-16T19:28:18.935Z,96146
2018-03-16T19:30:47.145Z,96152
2018-03-16T19:33:15.406Z,96156
2018-03-16T19:35:43.535Z,96156
2018-03-16T19:38:11.711Z,96152
2018-03-16T19:40:39.881Z,96154
2018-03-16T19:43:08.051Z,96157
2018-03-16T19:45:36.238Z,96157
2018-03-16T19:48:04.403Z,96164
2018-03-16T19:50:32.590Z,96160
2018-03-16T19:53:00.767Z,96151
2018-03-16T19:55:28.934Z,96152
2018-03-16T19:57:57.129Z,96154
2018-03-16T20:00:25.315Z,96155
2018-03-16T20:02:53.500Z,96157
2018-03-16T20:05:21.676Z,96157
2018-03-16T20:07:49.847Z,96163
2018-03-16T20:10:18.015Z,96163
2018-03-16T20:12:46.216Z,96159
2018-03-16T20:15:15.162Z,96159
2018-03-16T20:17:44.340Z,96161
2018-03-16T20:20:14.162Z,96161
2018-03-16T20:22:42.369Z,96158
2018-03-16T20:25:10.545Z,96164
2018-03-16T20:27:38.726Z,96152
2018-03-16T20:30:06.902Z,96147
2018-03-16T20:32:35.193Z,96141
2018-03-16T20:35:04.141Z,96149
2018-03-16T20:37:32.311Z,96166
2018-03-16T20:40:00.585Z,96162
2018-03-16T20:42:28.823Z,96155
2018-03-16T20:44:56.991Z,96146
2018-03-16T20:47:25.926Z,96145
2018-03-16T20:49:54.122Z,96145
2018-03-16T20:52:22.300Z,96147
2018-03-16T20:54:50.475Z,96158
2018-03-16T20:57:18.663Z,96161
2018-03-16T20:59:47.020Z,96158
2018-03-16T21:02:15.228Z,96156
2018-03-16T21:04:44.217Z,96162
2018-03-16T21:07:13.142Z,96160
2018-03-16T21:09:41.313Z,96164
2018-03-16T21:12:09.485Z,96167
2018-03-16T21:14:37.658Z,96163
2018-03-16T21:17:05.867Z,96167
2018-03-16T21:19:34.038Z,96164
2018-03-16T21:22:02.204Z,96160
2018-03-16T21:24:30.400Z,96160
2018-03-16T21:26:58.696Z,96155
2018-03-16T21:29:26.862Z,96153
2018-03-16T21:31:55.039Z,96151
2018-03-16T21:34:23.233Z,96155
2018-03-16T21:36:52.178Z,96158
2018-03-16T21:39:20.367Z,96155
2018-03-16T21:41:48.561Z,96158
2018-03-16T21:44:16.736Z,96159
2018-03-16T21:46:44.918Z,96162
2018-03-16T21:49:13.085Z,96151
2018-03-16T21:51:41.256Z,96153
2018-03-16T21:54:09.418Z,96153
2018-03-16T21:56:37.645Z,96157
2018-03-16T21:59:05.815Z,96151
2018-03-16T22:01:33.988Z,96159
2018-03-16T22:04:02.956Z,96157
2018-03-16T22:06:31.947Z,96161
2018-03-16T22:09:00.896Z,96156
2018-03-16T22:11:29.070Z,96154
2018-03-16T22:13:57.238Z,96143
2018-03-16T22:16:25.403Z,96166
2018-03-16T22:18:53.575Z,96169
2018-03-16T22:21:21.735Z,96167
2018-03-16T22:23:50.676Z,96165
2018-03-16T22:26:18.860Z,96171
2018-03-16T22:28:47.032Z,96176
2018-03-16T22:31:15.216Z,96176
2018-03-16T22:33:43.384Z,96172
2018-03-16T22:36:11.551Z,96167
2018-03-16T22:38:39.746Z,96164
2018-03-16T22:41:07.907Z,96168
2018-03-16T22:43:36.074Z,96162
2018-03-16T22:46:04.375Z,96162
2018-03-16T22:48:32.555Z,96166
2018-03-16T22:51:00.732Z,96165
2018-03-16T22:53:28.902Z,96164
2018-03-16T22:55:57.831Z,96169
2018-03-16T22:58:26.022Z,96164
2018-03-16T23:00:54.182Z,96165
2018-03-16T23:03:22.357Z,96153
2018-03-16T23:05:50.531Z,96161
2018-03-16T23:08:18.695Z,96158
2018-03-16T23:10:46.860Z,96153
2018-03-16T23:13:15.794Z,96153
2018-03-16T23:15:44.065Z,96155
2018-03-16T23:18:12.232Z,96158
2018-03-16T23:20:40.414Z,96154
2018-03-16T23:23:08.586Z,96153
2018-03-16T23:25:36.765Z,96147
2018-03-16T23:28:04.959Z,96141
2018-03-16T23:30:33.139Z,96147
2018-03-16T23:33:01.326Z,96151
2018-03-16T23:35:29.494Z,96155
2018-03-16T23:37:57.737Z,96156
2018-03-16T23:40:26.135Z,96155
2018-03-16T23:42:54.305Z,96154
2018-03-16T23:45:22.478Z,96150
2018-03-16T23:47:51.448Z,96144
2018-03-16T23:50:19.615Z,96140
2018-03-16T23:52:47.788Z,96139
2018-03-16T23:55:15.959Z,96139
2018-03-16T23:57:44.157Z,96143
